Cookeville, TN (38502)

10:37 AM CDT on October 02, 2014 (GMT -0500)
Millard Oakley STEM Center | Change Station
CLOSE
Current Station
Personal Weather Station
Location: Cookeville, TN
Elevation: 1122 ft
Nearby Weather Stations

Elev 1122 ft 36.17 °N, 85.51 °W | Updated 2 seconds ago

Clear
Clear
79.3 °F
Feels Like 81 °F
N
4.0
Wind Variable Wind from SSW
Gusts 9.0 mph

Today
High -- | Low -- °F
--% Chance of Precip.
Yesterday
High -- | Low -- °F
Precip. -- in
6:37 AM 6:24 PM
First Quarter, 59% visible
Pressure 30.09 in
Visibility 10.0 miles
Clouds Clear
Heat Index 81 °F
Dew Point 65 °F
Humidity 62%
Rainfall 0.00 in
Snow Depth Not available.
UV 4.0 out of 12
Pollen 5.40 out of 12
Air Quality Not available.
Flu Activity Not available.
METAR KSRB 021515Z AUTO 21005KT 10SM CLR 26/18 A3009 RMK

More Conditions Fewer Conditions

Pressure 30.09 in
Visibility 10.0 miles
Clouds Clear
Heat Index 81 °F
Dew Point 65 °F
Humidity 62%
Rainfall 0.00 in
Snow Depth Not available.
UV 4.0 out of 12
Pollen 5.40 out of 12
Air Quality Not available.
Flu Activity Not available.
METAR KSRB 021515Z AUTO 21005KT 10SM CLR 26/18 A3009 RMK

More Conditions Fewer Conditions

10-Day Weather Forecast

Almanac

Astronomy

Oct. 02, 2014 Rise Set
Actual Time 6:37 AM CDT 6:24 PM CDT
Civil Twilight 6:12 AM CDT 6:49 PM CDT
Nautical Twilight 5:42 AM CDT 7:19 PM CDT
Astronomical Twilight 5:12 AM CDT 7:49 PM CDT
Moon 2:20 PM CDT 12:04 AM CDT
Length of Visible Light 12h 37m
Length of Day
11h 46m
Tomorrow will be 2m 16s shorter.
First Quarter, 59% of the Moon is Illuminated
Today
First Quarter
Oct 8
Full
Oct 15
Last Quarter
Oct 23
New
Oct 30
First Quarter

Today's Extremes

State Highs State Lows

Community

WunderPhotos

Upload Photos

1,758,276 photos uploaded!

WunderBlogs® & News

Nearby

Snow Depth

Station Depth Elevation
No new snow has been reported.

Earthquake Activity

City Distance Mag. Time & Date
No recent earthquake activity has been reported nearby.
Minimum magnitude displayed is 2.5.

Coastal Water Temperatures

Place Temperature
No Stations Reporting

Nearby Weather Stations